createdAt,value
2019-02-05T00:00:55.211Z,81.00
2019-02-05T00:03:59.421Z,81.10
2019-02-05T00:07:03.636Z,81.10
2019-02-05T00:10:07.929Z,81.10
2019-02-05T00:13:12.079Z,81.20
2019-02-05T00:16:16.275Z,81.20
2019-02-05T00:19:20.443Z,81.20
2019-02-05T00:22:24.648Z,81.10
2019-02-05T00:25:28.809Z,81.10
2019-02-05T00:28:33.009Z,81.10
2019-02-05T00:31:37.110Z,81.10
2019-02-05T00:34:41.299Z,82.10
2019-02-05T00:37:45.450Z,81.20
2019-02-05T00:40:49.653Z,81.20
2019-02-05T00:43:53.819Z,81.20
2019-02-05T00:46:58.007Z,81.20
2019-02-05T00:50:02.104Z,81.10
2019-02-05T00:53:06.307Z,81.20
2019-02-05T00:56:17.380Z,81.20
2019-02-05T00:59:17.463Z,81.20
2019-02-05T01:02:21.631Z,81.10
2019-02-05T01:05:26.221Z,81.20
2019-02-05T01:08:30.343Z,81.20
2019-02-05T01:11:34.903Z,81.10
2019-02-05T01:14:39.355Z,80.90
2019-02-05T01:17:43.552Z,81.00
2019-02-05T01:20:47.720Z,81.00
2019-02-05T01:23:52.195Z,81.00
2019-02-05T01:26:56.365Z,81.10
2019-02-05T01:30:00.511Z,81.00
2019-02-05T01:33:04.665Z,81.00
2019-02-05T01:36:08.776Z,81.90
2019-02-05T01:39:13.066Z,81.10
2019-02-05T01:42:17.245Z,81.00
2019-02-05T01:45:23.064Z,81.10
2019-02-05T01:48:27.316Z,81.00
2019-02-05T01:51:31.401Z,81.10
2019-02-05T01:54:35.591Z,80.30
2019-02-05T01:57:39.759Z,81.10
2019-02-05T02:00:43.960Z,81.00
2019-02-05T02:03:48.126Z,81.00
2019-02-05T02:06:52.324Z,81.20
2019-02-05T02:09:56.532Z,81.10
2019-02-05T02:13:00.736Z,81.10
2019-02-05T02:16:04.927Z,81.10
2019-02-05T02:19:09.036Z,81.20
2019-02-05T02:22:13.198Z,81.00
2019-02-05T02:25:17.389Z,81.00
2019-02-05T02:28:21.546Z,81.00
2019-02-05T02:31:25.750Z,81.00
2019-02-05T02:34:29.908Z,81.10
2019-02-05T02:37:34.094Z,81.00
2019-02-05T02:40:38.320Z,81.10
2019-02-05T02:43:42.564Z,81.10
2019-02-05T02:46:46.723Z,81.00
2019-02-05T02:49:50.915Z,81.00
2019-02-05T02:52:55.067Z,81.10
2019-02-05T02:55:59.219Z,81.00
2019-02-05T02:59:03.368Z,80.90
2019-02-05T03:02:07.579Z,81.00
2019-02-05T03:05:13.236Z,81.00
2019-02-05T03:08:17.434Z,80.90
2019-02-05T03:11:21.607Z,80.80
2019-02-05T03:14:25.829Z,80.70
2019-02-05T03:17:29.992Z,80.80
2019-02-05T03:20:34.631Z,80.70
2019-02-05T03:23:38.788Z,80.80
2019-02-05T03:26:42.969Z,80.70
2019-02-05T03:29:47.123Z,80.60
2019-02-05T03:32:51.566Z,80.50
2019-02-05T03:35:55.723Z,80.50
2019-02-05T03:38:59.907Z,80.40
2019-02-05T03:42:04.445Z,80.30
2019-02-05T03:45:08.645Z,80.20
2019-02-05T03:48:12.822Z,80.30
2019-02-05T03:51:41.700Z,80.10
2019-02-05T03:55:30.087Z,79.60
2019-02-05T03:59:11.463Z,79.70
2019-02-05T04:03:00.212Z,79.50
2019-02-05T04:06:29.956Z,79.60
2019-02-05T04:10:18.299Z,79.40
2019-02-05T04:13:53.596Z,79.60
2019-02-05T04:17:47.482Z,79.60
2019-02-05T04:21:27.849Z,79.60
2019-02-05T04:25:28.955Z,79.40
2019-02-05T04:29:19.422Z,79.90
2019-02-05T04:33:04.498Z,79.30
2019-02-05T04:36:41.476Z,79.10
2019-02-05T04:40:37.381Z,79.00
2019-02-05T04:44:05.100Z,78.80
2019-02-05T04:47:36.889Z,78.90
2019-02-05T04:51:10.943Z,78.60
2019-02-05T04:54:49.117Z,78.20
2019-02-05T04:58:13.928Z,78.10
2019-02-05T05:01:37.153Z,78.00
2019-02-05T05:04:56.224Z,78.10
2019-02-05T05:08:31.393Z,77.80
2019-02-05T05:11:35.593Z,77.80
2019-02-05T05:14:39.816Z,77.40
2019-02-05T05:17:44.202Z,76.90
2019-02-05T05:20:48.371Z,77.80
2019-02-05T05:23:52.700Z,77.00
2019-02-05T05:26:56.869Z,76.90
2019-02-05T05:30:01.084Z,76.60
2019-02-05T05:33:05.251Z,76.70
2019-02-05T05:36:09.632Z,76.30
2019-02-05T05:39:13.803Z,76.20
2019-02-05T05:42:17.995Z,76.30
2019-02-05T05:45:22.520Z,76.00
2019-02-05T05:48:26.636Z,75.80
2019-02-05T05:51:30.890Z,75.60
2019-02-05T05:54:35.599Z,75.40
2019-02-05T05:57:39.766Z,75.40
2019-02-05T06:00:44.014Z,75.40
2019-02-05T06:03:48.473Z,75.50
2019-02-05T06:06:52.763Z,75.30
2019-02-05T06:09:57.985Z,75.30
2019-02-05T06:13:02.502Z,75.30
2019-02-05T06:16:06.803Z,75.20
2019-02-05T06:19:11.014Z,75.80
2019-02-05T06:22:15.651Z,75.10
2019-02-05T06:25:19.932Z,74.80
2019-02-05T06:28:34.393Z,74.80
2019-02-05T06:31:30.059Z,74.80
2019-02-05T06:34:34.255Z,75.00
2019-02-05T06:37:38.455Z,75.00
2019-02-05T06:40:42.829Z,75.00
2019-02-05T06:43:47.145Z,74.90
2019-02-05T06:46:51.427Z,75.00
2019-02-05T06:49:55.684Z,75.10
2019-02-05T06:52:59.857Z,74.90
2019-02-05T06:56:04.121Z,75.20
2019-02-05T06:59:08.298Z,75.20
2019-02-05T07:02:12.510Z,75.20
2019-02-05T07:05:16.622Z,75.30
2019-02-05T07:08:20.808Z,75.40
2019-02-05T07:11:24.964Z,75.80
2019-02-05T07:14:29.148Z,75.80
2019-02-05T07:17:33.297Z,76.10
2019-02-05T07:20:37.576Z,76.40
2019-02-05T07:23:41.657Z,76.50
2019-02-05T07:26:45.844Z,76.70
2019-02-05T07:29:50.081Z,76.90
2019-02-05T07:32:54.270Z,77.40
2019-02-05T07:35:58.334Z,77.60
2019-02-05T07:39:02.445Z,78.00
2019-02-05T07:42:06.808Z,78.80
2019-02-05T07:45:14.377Z,79.20
2019-02-05T07:48:18.450Z,80.20
2019-02-05T07:51:22.862Z,80.40
2019-02-05T07:54:26.860Z,80.90
2019-02-05T07:57:30.995Z,81.30
2019-02-05T08:00:35.053Z,81.20
2019-02-05T08:03:39.173Z,81.30
2019-02-05T08:06:43.326Z,81.20
2019-02-05T08:09:47.462Z,80.90
2019-02-05T08:12:51.538Z,81.00
2019-02-05T08:15:55.753Z,80.90
2019-02-05T08:18:59.831Z,81.00
2019-02-05T08:22:04.101Z,81.20
2019-02-05T08:25:11.407Z,81.10
2019-02-05T08:28:15.608Z,81.30
2019-02-05T08:31:19.605Z,81.40
2019-02-05T08:34:24.094Z,81.50
2019-02-05T08:37:28.235Z,81.60
2019-02-05T08:40:32.340Z,81.80
2019-02-05T08:43:36.721Z,81.50
2019-02-05T08:46:40.830Z,81.60
2019-02-05T08:49:44.984Z,81.50
2019-02-05T08:52:49.225Z,81.50
2019-02-05T08:55:53.287Z,81.40
2019-02-05T08:58:57.526Z,81.40
2019-02-05T09:02:01.592Z,81.30
2019-02-05T09:05:05.948Z,81.40
2019-02-05T09:08:10.005Z,81.50
2019-02-05T09:11:14.177Z,81.40
2019-02-05T09:14:18.262Z,81.30
2019-02-05T09:17:24.270Z,81.50
2019-02-05T09:20:28.087Z,81.70
2019-02-05T09:23:32.653Z,81.30
2019-02-05T09:26:36.743Z,81.60
2019-02-05T09:29:40.864Z,81.50
2019-02-05T09:32:45.243Z,81.70
2019-02-05T09:35:49.643Z,81.60
2019-02-05T09:38:53.780Z,81.50
2019-02-05T09:41:57.973Z,81.60
2019-02-05T09:45:02.441Z,81.50
2019-02-05T09:48:06.612Z,81.10
2019-02-05T09:51:10.863Z,81.10
2019-02-05T09:54:15.443Z,81.00
2019-02-05T09:57:19.581Z,80.90
2019-02-05T10:00:29.010Z,80.90
2019-02-05T10:03:33.380Z,80.60
2019-02-05T10:06:37.495Z,80.60
2019-02-05T10:09:41.558Z,80.00
2019-02-05T10:12:46.984Z,79.40
2019-02-05T10:15:51.334Z,79.50
2019-02-05T10:18:55.449Z,78.90
2019-02-05T10:21:59.607Z,78.40
2019-02-05T10:25:03.735Z,78.80
2019-02-05T10:28:08.127Z,78.30
2019-02-05T10:31:12.233Z,78.10
2019-02-05T10:37:39.357Z,77.70
2019-02-05T10:40:43.500Z,77.50
2019-02-05T10:43:47.697Z,77.10
2019-02-05T10:46:51.836Z,76.80
2019-02-05T10:49:55.957Z,76.20
2019-02-05T10:53:00.037Z,75.70
2019-02-05T10:56:04.145Z,76.00
2019-02-05T10:59:08.537Z,74.90
2019-02-05T11:02:12.828Z,74.50
2019-02-05T11:05:20.408Z,74.30
2019-02-05T11:08:24.578Z,73.70
2019-02-05T11:11:28.580Z,73.50
2019-02-05T11:14:32.768Z,72.70
2019-02-05T11:17:37.461Z,71.70
2019-02-05T11:20:41.628Z,70.90
2019-02-05T11:23:45.788Z,70.60
2019-02-05T11:26:50.208Z,70.00
2019-02-05T11:29:54.367Z,70.00
2019-02-05T11:32:58.569Z,69.40
2019-02-05T11:36:02.710Z,68.90
2019-02-05T11:39:13.699Z,68.50
2019-02-05T11:42:17.758Z,68.10
2019-02-05T11:45:22.077Z,68.00
2019-02-05T11:48:26.216Z,67.90
2019-02-05T11:51:30.409Z,66.80
2019-02-05T11:54:34.794Z,66.30
2019-02-05T11:57:38.925Z,65.30
2019-02-05T12:01:00.067Z,66.40
2019-02-05T12:04:04.557Z,64.70
2019-02-05T12:07:08.720Z,64.60
2019-02-05T12:10:12.838Z,65.80
2019-02-05T12:13:16.929Z,65.10
2019-02-05T12:16:21.043Z,65.10
2019-02-05T12:19:25.199Z,62.80
2019-02-05T12:22:29.691Z,62.90
2019-02-05T12:25:33.880Z,62.90
2019-02-05T12:28:38.197Z,60.90
2019-02-05T12:31:42.761Z,61.00
2019-02-05T12:34:46.810Z,60.50
2019-02-05T12:37:50.907Z,60.40
2019-02-05T12:40:55.422Z,59.40
2019-02-05T12:43:59.871Z,58.80
2019-02-05T12:47:04.181Z,58.50
2019-02-05T12:50:12.652Z,58.00
2019-02-05T12:53:16.760Z,59.10
2019-02-05T12:56:20.856Z,58.00
2019-02-05T12:59:25.358Z,58.30
2019-02-05T13:02:29.439Z,57.90
2019-02-05T13:05:33.675Z,58.20
2019-02-05T13:08:38.140Z,57.60
2019-02-05T13:11:42.253Z,57.30
2019-02-05T13:14:46.438Z,56.40
2019-02-05T13:17:50.853Z,56.20
2019-02-05T13:20:55.059Z,56.90
2019-02-05T13:23:59.253Z,56.40
2019-02-05T13:27:03.343Z,56.10
2019-02-05T13:30:09.239Z,55.60
2019-02-05T13:33:14.739Z,55.60
2019-02-05T13:36:18.874Z,55.50
2019-02-05T13:39:23.032Z,55.20
2019-02-05T13:42:27.249Z,55.40
2019-02-05T13:45:33.636Z,55.00
2019-02-05T13:48:37.812Z,55.40
2019-02-05T13:51:41.976Z,55.90
2019-02-05T13:54:46.188Z,56.40
2019-02-05T13:57:50.478Z,55.40
2019-02-05T14:00:55.734Z,55.60
2019-02-05T14:03:59.906Z,56.90
2019-02-05T14:07:05.157Z,57.10
2019-02-05T14:10:12.708Z,56.80
2019-02-05T14:13:19.951Z,57.40
2019-02-05T14:16:24.318Z,57.70
2019-02-05T14:19:28.510Z,58.30
2019-02-05T14:22:32.676Z,57.80
2019-02-05T14:25:38.917Z,57.70
2019-02-05T14:28:43.087Z,57.60
2019-02-05T14:31:47.290Z,57.80
2019-02-05T14:34:51.379Z,57.90
2019-02-05T14:37:55.456Z,58.10
2019-02-05T14:40:59.596Z,58.00
2019-02-05T14:44:03.888Z,58.30
2019-02-05T14:47:08.043Z,58.20
2019-02-05T14:50:15.956Z,58.20
2019-02-05T14:53:20.120Z,58.50
2019-02-05T14:56:24.242Z,58.70
2019-02-05T14:59:28.413Z,58.70
2019-02-05T15:02:32.878Z,58.80
2019-02-05T15:05:37.119Z,59.20
2019-02-05T15:08:41.426Z,58.10
2019-02-05T15:11:45.538Z,58.10
2019-02-05T15:14:49.646Z,58.30
2019-02-05T15:17:53.829Z,58.70
2019-02-05T15:20:58.096Z,58.90
2019-02-05T15:24:02.251Z,59.60
2019-02-05T15:27:06.574Z,60.00
2019-02-05T15:30:14.660Z,60.20
2019-02-05T15:33:25.559Z,60.90
2019-02-05T15:36:34.405Z,61.50
2019-02-05T15:39:38.780Z,61.90
2019-02-05T15:42:42.950Z,62.30
2019-02-05T15:45:47.128Z,62.80
2019-02-05T15:48:51.204Z,63.10
2019-02-05T15:51:55.495Z,63.40
2019-02-05T15:54:59.588Z,63.90
2019-02-05T15:58:04.020Z,64.00
2019-02-05T16:01:08.202Z,64.60
2019-02-05T16:04:13.188Z,64.80
2019-02-05T16:07:17.380Z,64.90
2019-02-05T16:10:23.788Z,65.10
2019-02-05T16:13:28.076Z,65.20
2019-02-05T16:16:32.720Z,65.30
2019-02-05T16:19:37.837Z,65.70
2019-02-05T16:22:42.411Z,66.00
2019-02-05T16:25:46.585Z,66.00
2019-02-05T16:28:50.849Z,66.20
2019-02-05T16:31:55.633Z,66.10
2019-02-05T16:34:59.920Z,65.90
2019-02-05T16:38:04.728Z,66.30
2019-02-05T16:41:09.275Z,65.80
2019-02-05T16:44:14.743Z,66.10
2019-02-05T16:47:19.269Z,66.10
2019-02-05T16:50:29.280Z,66.10
2019-02-05T16:53:34.014Z,66.20
2019-02-05T16:56:41.000Z,66.20
2019-02-05T16:59:46.545Z,66.30
2019-02-05T17:02:50.802Z,66.50
2019-02-05T17:05:58.640Z,66.50
2019-02-05T17:09:04.423Z,66.50
2019-02-05T17:12:08.631Z,66.50
2019-02-05T17:15:14.876Z,66.50
2019-02-05T17:18:23.556Z,66.70
2019-02-05T17:21:24.988Z,66.90
2019-02-05T17:24:30.466Z,67.00
2019-02-05T17:27:34.569Z,67.80
2019-02-05T17:30:39.892Z,67.30
2019-02-05T17:33:44.133Z,67.50
2019-02-05T17:36:49.264Z,67.80
2019-02-05T17:39:53.479Z,68.00
2019-02-05T17:42:57.867Z,68.10
2019-02-05T17:46:01.981Z,68.30
2019-02-05T17:49:06.294Z,68.20
2019-02-05T17:52:10.586Z,68.30
2019-02-05T17:55:15.001Z,68.10
2019-02-05T17:58:19.112Z,68.00
2019-02-05T18:01:23.371Z,68.10
2019-02-05T18:04:27.664Z,68.30
2019-02-05T18:07:32.057Z,68.20
2019-02-05T18:10:36.690Z,68.30
2019-02-05T18:13:40.933Z,68.70
2019-02-05T18:16:45.548Z,68.60
2019-02-05T18:19:49.845Z,69.50
2019-02-05T18:22:54.066Z,69.00
2019-02-05T18:25:58.278Z,69.10
2019-02-05T18:29:02.589Z,69.20
2019-02-05T18:32:07.030Z,69.10
2019-02-05T18:35:11.376Z,69.30
2019-02-05T18:38:16.259Z,69.30
2019-02-05T18:41:23.005Z,69.50
2019-02-05T18:44:28.486Z,69.60
2019-02-05T18:47:35.897Z,69.30
2019-02-05T18:50:40.289Z,69.30
2019-02-05T18:53:46.136Z,69.40
2019-02-05T18:57:00.344Z,69.30
2019-02-05T19:00:08.329Z,69.40
2019-02-05T19:03:19.736Z,69.20
2019-02-05T19:06:34.338Z,69.50
2019-02-05T19:09:39.746Z,69.50
2019-02-05T19:12:49.148Z,69.60
2019-02-05T19:16:03.859Z,69.90
2019-02-05T19:19:15.963Z,69.90
2019-02-05T19:22:22.899Z,69.90
2019-02-05T19:25:50.062Z,69.80
2019-02-05T19:28:55.383Z,69.60
2019-02-05T19:32:00.740Z,69.80
2019-02-05T19:35:07.485Z,70.10
2019-02-05T19:38:15.879Z,70.30
2019-02-05T19:41:20.573Z,70.60
2019-02-05T19:44:26.131Z,70.50
2019-02-05T19:47:34.203Z,70.50
2019-02-05T19:50:39.092Z,70.60
2019-02-05T19:53:45.144Z,70.60
2019-02-05T19:56:50.643Z,70.40
2019-02-05T19:59:57.939Z,70.40
2019-02-05T20:03:07.281Z,70.40
2019-02-05T20:06:17.036Z,70.40
2019-02-05T20:09:25.013Z,70.50
2019-02-05T20:12:32.106Z,71.30
2019-02-05T20:15:38.435Z,70.20
2019-02-05T20:18:44.331Z,70.40
2019-02-05T20:21:49.452Z,70.30
2019-02-05T20:24:55.844Z,70.20
2019-02-05T20:28:02.853Z,70.10
2019-02-05T20:31:07.050Z,70.30
2019-02-05T20:34:19.833Z,70.00
2019-02-05T20:37:24.275Z,70.20
2019-02-05T20:40:28.545Z,70.20
2019-02-05T20:43:32.894Z,70.30
2019-02-05T20:46:37.119Z,70.30
2019-02-05T20:49:41.792Z,70.20
2019-02-05T20:52:46.349Z,70.30
2019-02-05T20:55:51.136Z,70.20
2019-02-05T20:58:56.937Z,70.30
2019-02-05T21:02:01.109Z,70.50
2019-02-05T21:05:06.764Z,70.50
2019-02-05T21:08:11.177Z,70.80
2019-02-05T21:11:15.628Z,70.80
2019-02-05T21:14:20.133Z,71.00
2019-02-05T21:17:24.614Z,71.10
2019-02-05T21:20:31.733Z,71.10
2019-02-05T21:23:34.750Z,71.00
2019-02-05T21:26:39.072Z,71.00
2019-02-05T21:29:43.308Z,71.00
2019-02-05T21:32:48.092Z,71.50
2019-02-05T21:35:52.426Z,71.70
2019-02-05T21:38:59.830Z,71.80
2019-02-05T21:42:04.913Z,72.00
2019-02-05T21:45:11.416Z,72.00
2019-02-05T21:48:15.588Z,72.10
2019-02-05T21:51:20.096Z,72.60
2019-02-05T21:54:24.279Z,72.50
2019-02-05T21:57:28.495Z,72.70
2019-02-05T22:00:33.271Z,72.80
2019-02-05T22:03:37.495Z,72.80
2019-02-05T22:06:42.032Z,73.10
2019-02-05T22:09:46.553Z,73.00
2019-02-05T22:12:50.810Z,73.00
2019-02-05T22:15:57.445Z,73.10
2019-02-05T22:19:01.610Z,72.90
2019-02-05T22:22:06.154Z,72.90
2019-02-05T22:25:14.222Z,72.90
2019-02-05T22:28:20.565Z,73.10
2019-02-05T22:31:24.269Z,73.00
2019-02-05T22:34:38.892Z,73.10
2019-02-05T22:37:34.329Z,73.00
2019-02-05T22:40:38.530Z,73.10
2019-02-05T22:43:43.025Z,72.90
2019-02-05T22:46:47.231Z,72.90
2019-02-05T22:49:51.403Z,72.70
2019-02-05T22:52:55.626Z,73.00
2019-02-05T22:55:59.831Z,72.80
2019-02-05T22:59:04.040Z,72.50
2019-02-05T23:02:08.239Z,72.30
2019-02-05T23:05:53.642Z,72.20
2019-02-05T23:09:01.256Z,72.40
2019-02-05T23:12:33.399Z,72.50
2019-02-05T23:15:40.625Z,72.50
2019-02-05T23:18:45.036Z,72.60
2019-02-05T23:21:49.224Z,72.80
2019-02-05T23:24:53.447Z,73.00
2019-02-05T23:27:58.086Z,72.80
2019-02-05T23:31:02.285Z,72.80
2019-02-05T23:34:06.439Z,73.20
2019-02-05T23:37:11.057Z,73.10
2019-02-05T23:40:15.252Z,73.10
2019-02-05T23:43:19.511Z,73.10
2019-02-05T23:46:23.998Z,73.40
2019-02-05T23:49:28.191Z,73.40
2019-02-05T23:52:32.356Z,73.50
2019-02-05T23:55:36.959Z,73.10
2019-02-05T23:58:41.216Z,73.30
